Time;durP1;ratioP1;P1;durP2;ratioP2;P2;SDS_P1;SDS_P2;PMS_P1;PMS_P2;Temp;Humidity;BMP_temperature;BMP_pressure;BME280_temperature;BME280_humidity;BME280_pressure;Samples;Min_cycle;Max_cycle;Signal;HPM_P1;HPM_P2
2022/10/17 00:01:28;;;;;;;4.72;2.03;;;17.40;90.40;;;;;;5009243;28;20034;-83
2022/10/17 00:03:53;;;;;;;5.18;2.35;;;17.40;90.40;;;;;;5019098;28;20041;-81
2022/10/17 00:06:19;;;;;;;4.00;2.20;;;17.40;90.40;;;;;;5018040;28;20780;-82
2022/10/17 00:08:44;;;;;;;3.75;1.92;;;17.40;90.40;;;;;;5013737;28;20112;-81
2022/10/17 00:11:20;;;;;;;4.70;2.30;;;17.40;90.40;;;;;;5010098;28;20033;-82
2022/10/17 00:13:47;;;;;;;4.07;2.08;;;17.40;90.40;;;;;;5020190;28;20149;-81
2022/10/17 00:16:14;;;;;;;4.70;2.05;;;17.40;90.40;;;;;;5029131;28;20409;-83
2022/10/17 00:18:40;;;;;;;4.43;2.30;;;17.40;90.40;;;;;;5019195;28;20060;-82
2022/10/17 00:21:05;;;;;;;4.10;2.03;;;17.40;90.30;;;;;;4973572;28;20480;-82
2022/10/17 00:23:32;;;;;;;4.50;2.00;;;17.40;90.20;;;;;;4991997;28;20022;-81
2022/10/17 00:26:04;;;;;;;3.72;2.00;;;17.50;90.30;;;;;;5018104;28;20029;-81
2022/10/17 00:28:29;;;;;;;;;;;17.50;90.20;;;;;;4993282;28;20030;-82
2022/10/17 00:30:57;;;;;;;4.30;2.00;;;17.50;90.20;;;;;;4992510;28;19916;-82
2022/10/17 00:33:22;;;;;;;4.20;2.00;;;17.40;90.20;;;;;;5008985;28;20049;-83
2022/10/17 00:35:48;;;;;;;3.63;1.90;;;17.40;90.20;;;;;;5009943;28;20026;-82
2022/10/17 00:38:13;;;;;;;4.93;2.10;;;17.40;90.20;;;;;;5010327;28;20396;-82
2022/10/17 00:40:39;;;;;;;3.80;2.08;;;17.40;90.20;;;;;;5010094;28;20026;-82
2022/10/17 00:43:14;;;;;;;3.60;1.88;;;17.40;90.30;;;;;;4993106;28;20022;-82
2022/10/17 00:45:40;;;;;;;4.25;2.00;;;17.40;90.20;;;;;;5010492;28;20484;-81
2022/10/17 00:48:10;;;;;;;4.00;2.10;;;17.40;90.30;;;;;;5010582;28;20072;-82
2022/10/17 00:50:37;;;;;;;4.28;2.20;;;17.40;90.30;;;;;;4992282;28;20040;-82
2022/10/17 00:53:06;;;;;;;3.85;1.98;;;17.40;90.30;;;;;;5010026;28;20170;-81
2022/10/17 00:55:37;;;;;;;4.10;2.03;;;17.40;90.40;;;;;;5008863;28;20475;-81
2022/10/17 00:58:04;;;;;;;4.82;2.15;;;17.30;90.30;;;;;;5010230;28;20072;-81
2022/10/17 01:00:30;;;;;;;3.95;2.10;;;17.30;90.30;;;;;;5009739;28;20041;-82
2022/10/17 01:02:55;;;;;;;3.33;1.92;;;17.30;90.30;;;;;;5008730;28;20048;-83
2022/10/17 01:05:21;;;;;;;5.40;2.20;;;17.30;90.30;;;;;;5008835;28;20026;-83
2022/10/17 01:07:49;;;;;;;4.80;2.13;;;17.30;90.50;;;;;;5009730;28;20038;-80
2022/10/17 01:10:15;;;;;;;3.83;2.15;;;17.20;90.30;;;;;;5020997;28;20040;-83
2022/10/17 01:13:04;;;;;;;3.90;2.00;;;17.30;90.30;;;;;;4999990;28;20049;-81
2022/10/17 01:15:54;;;;;;;4.65;2.10;;;17.30;90.20;;;;;;4999767;28;20022;-81
2022/10/17 01:18:51;;;;;;;4.70;2.30;;;17.40;90.20;;;;;;4991967;28;20057;-81
2022/10/17 01:21:31;;;;;;;4.45;2.20;;;17.40;90.20;;;;;;5009517;28;20017;-81
2022/10/17 01:24:00;;;;;;;4.07;2.05;;;17.40;90.20;;;;;;5009243;28;20061;-82
2022/10/17 01:27:03;;;;;;;3.92;2.20;;;17.40;90.10;;;;;;4997802;28;20084;-81
2022/10/17 01:29:29;;;;;;;4.00;2.08;;;17.40;90.10;;;;;;4996389;28;20492;-82
2022/10/17 01:32:02;;;;;;;3.45;2.05;;;17.40;90.10;;;;;;5006662;28;20028;-82
2022/10/17 01:34:39;;;;;;;3.88;2.00;;;17.40;90.20;;;;;;5028447;28;20487;-82
2022/10/17 01:37:26;;;;;;;4.32;2.08;;;17.30;90.20;;;;;;5013173;28;20033;-82
2022/10/17 01:40:24;;;;;;;3.88;1.98;;;17.30;90.20;;;;;;5008099;28;20037;-80
2022/10/17 01:42:56;;;;;;;3.70;2.13;;;17.30;90.20;;;;;;4992959;28;20108;-83
2022/10/17 01:45:31;;;;;;;3.60;2.10;;;17.30;90.20;;;;;;4991522;28;20041;-82
2022/10/17 01:48:01;;;;;;;3.88;1.98;;;17.30;90.20;;;;;;4992442;28;20065;-83
2022/10/17 01:50:42;;;;;;;4.72;1.90;;;17.30;90.40;;;;;;5008180;28;20379;-84
2022/10/17 01:53:13;;;;;;;3.92;2.22;;;17.30;90.20;;;;;;4996358;28;20056;-84
2022/10/17 01:55:41;;;;;;;3.10;1.80;;;17.30;90.30;;;;;;5011503;28;20037;-83
2022/10/17 01:58:18;;;;;;;5.43;2.30;;;17.30;90.20;;;;;;4991986;28;20164;-82
2022/10/17 02:00:45;;;;;;;3.95;1.92;;;17.30;90.20;;;;;;5009061;28;20037;-82
2022/10/17 02:03:17;;;;;;;3.97;2.15;;;17.30;90.30;;;;;;4991403;28;20033;-81
2022/10/17 02:05:43;;;;;;;4.07;2.08;;;17.30;90.30;;;;;;5007940;28;20030;-82
2022/10/17 02:08:10;;;;;;;3.83;2.20;;;17.30;90.20;;;;;;5009209;28;20041;-82
2022/10/17 02:10:41;;;;;;;3.63;2.10;;;17.30;90.30;;;;;;5007619;28;20468;-82
2022/10/17 02:13:31;;;;;;;3.95;1.83;;;17.30;90.20;;;;;;5009040;28;20030;-82
2022/10/17 02:16:45;;;;;;;3.65;1.90;;;17.30;90.20;;;;;;4988395;28;20033;-81
2022/10/17 02:19:33;;;;;;;2.97;1.65;;;17.30;90.10;;;;;;4919579;28;20124;-81
2022/10/17 02:22:17;;;;;;;4.05;2.20;;;17.30;90.10;;;;;;4989169;28;20018;-82
2022/10/17 02:24:56;;;;;;;3.10;2.00;;;17.30;90.10;;;;;;4989657;28;20030;-82
2022/10/17 02:27:46;;;;;;;3.85;2.15;;;17.30;90.00;;;;;;4988194;28;20598;-83
2022/10/17 02:30:16;;;;;;;3.13;1.83;;;17.30;90.10;;;;;;4995921;28;20502;-81
2022/10/17 02:32:51;;;;;;;4.20;2.25;;;17.30;90.10;;;;;;4997348;28;20022;-81
2022/10/17 02:35:19;;;;;;;3.80;2.00;;;17.30;90.10;;;;;;5014096;28;20121;-82
2022/10/17 02:37:46;;;;;;;3.25;2.13;;;17.30;90.10;;;;;;5011067;28;20033;-81
2022/10/17 02:40:13;;;;;;;3.20;1.92;;;17.30;90.20;;;;;;4997216;28;20033;-83
2022/10/17 02:42:42;;;;;;;3.83;2.00;;;17.20;90.20;;;;;;5020291;28;20034;-82
2022/10/17 02:45:08;;;;;;;6.80;2.28;;;17.40;90.20;;;;;;4995768;28;20483;-82
2022/10/17 02:47:42;;;;;;;4.65;2.17;;;17.20;90.10;;;;;;5016341;28;20039;-81
2022/10/17 02:50:08;;;;;;;3.30;1.90;;;17.20;90.20;;;;;;4980777;28;20026;-81
2022/10/17 02:52:42;;;;;;;3.28;1.90;;;17.20;90.20;;;;;;4996782;28;20061;-82
2022/10/17 02:55:16;;;;;;;3.30;2.17;;;17.20;90.20;;;;;;5008276;28;20018;-82
2022/10/17 02:57:59;;;;;;;3.38;2.00;;;17.20;90.20;;;;;;5010955;28;20109;-83
2022/10/17 03:00:26;;;;;;;3.58;2.17;;;17.10;90.20;;;;;;5010057;28;20030;-81
2022/10/17 03:02:53;;;;;;;5.70;2.00;;;17.30;90.20;;;;;;5026285;28;20105;-82
2022/10/17 03:05:22;;;;;;;3.47;2.08;;;17.20;90.20;;;;;;5016623;28;20048;-82
2022/10/17 03:07:47;;;;;;;3.72;1.92;;;17.20;90.20;;;;;;5029719;28;20037;-81
2022/10/17 03:10:13;;;;;;;3.72;2.00;;;17.30;90.20;;;;;;5010637;28;20502;-82
2022/10/17 03:12:38;;;;;;;4.80;2.30;;;17.20;90.10;;;;;;5010306;28;20030;-82
2022/10/17 03:15:05;;;;;;;3.80;1.85;;;17.20;90.10;;;;;;5014195;28;20080;-81
2022/10/17 03:17:30;;;;;;;2.75;1.92;;;17.30;90.10;;;;;;5023440;28;20542;-81
2022/10/17 03:19:56;;;;;;;4.18;2.13;;;17.30;90.10;;;;;;4994257;28;20030;-82
2022/10/17 03:22:22;;;;;;;3.65;2.13;;;17.30;90.00;;;;;;4993899;28;20095;-82
2022/10/17 03:24:47;;;;;;;4.35;2.20;;;17.30;90.00;;;;;;5018151;28;20038;-82
2022/10/17 03:27:13;;;;;;;3.28;2.00;;;17.30;90.00;;;;;;5026979;28;20488;-81
2022/10/17 03:29:38;;;;;;;3.50;2.10;;;17.30;90.10;;;;;;5010404;28;20061;-81
2022/10/17 03:32:04;;;;;;;3.25;2.00;;;17.20;90.00;;;;;;5010136;28;20034;-83
2022/10/17 03:34:29;;;;;;;4.53;2.08;;;17.30;90.30;;;;;;5010459;28;20045;-81
2022/10/17 03:36:55;;;;;;;4.25;1.92;;;17.20;90.10;;;;;;5010380;28;20029;-80
2022/10/17 03:39:20;;;;;;;3.10;1.98;;;17.20;90.10;;;;;;5010383;28;20041;-82
2022/10/17 03:41:46;;;;;;;3.53;2.20;;;17.20;90.10;;;;;;4993298;28;20032;-81
2022/10/17 03:44:11;;;;;;;3.33;1.85;;;17.20;90.10;;;;;;5010148;28;20399;-81
2022/10/17 03:46:37;;;;;;;2.92;1.80;;;17.20;90.10;;;;;;5009747;28;20034;-82
2022/10/17 03:49:03;;;;;;;4.43;2.35;;;17.20;90.10;;;;;;5010819;28;20030;-81
2022/10/17 03:51:28;;;;;;;3.70;2.22;;;17.20;90.10;;;;;;5015549;28;20028;-81
2022/10/17 03:53:54;;;;;;;2.78;1.73;;;17.20;90.10;;;;;;5021015;28;20529;-82
2022/10/17 03:56:22;;;;;;;3.92;2.08;;;17.10;90.10;;;;;;4998209;28;20447;-80
2022/10/17 03:58:48;;;;;;;4.28;2.20;;;17.20;90.10;;;;;;4985864;28;20034;-80
2022/10/17 04:01:15;;;;;;;3.65;2.13;;;17.20;90.10;;;;;;4994117;28;20076;-81
2022/10/17 04:03:41;;;;;;;4.00;2.28;;;17.20;90.20;;;;;;5012421;28;20092;-82
2022/10/17 04:06:09;;;;;;;5.00;2.22;;;17.20;90.10;;;;;;4994840;28;20116;-81
2022/10/17 04:08:35;;;;;;;3.28;1.90;;;17.20;90.20;;;;;;5012317;28;20036;-80
2022/10/17 04:11:03;;;;;;;2.53;1.70;;;17.20;90.10;;;;;;4994535;28;20026;-81
2022/10/17 04:13:29;;;;;;;3.58;1.85;;;17.20;90.10;;;;;;4993986;28;20029;-81
2022/10/17 04:15:59;;;;;;;4.07;1.92;;;17.20;90.00;;;;;;5010343;28;20046;-81
2022/10/17 04:18:25;;;;;;;3.22;1.88;;;17.20;90.00;;;;;;5011843;28;20034;-82
2022/10/17 04:20:51;;;;;;;3.25;1.98;;;17.30;90.00;;;;;;5009598;28;20029;-81
2022/10/17 04:23:16;;;;;;;3.40;2.15;;;17.30;90.00;;;;;;5008245;28;20046;-81
2022/10/17 04:25:42;;;;;;;3.17;1.90;;;17.20;90.00;;;;;;5010525;28;20088;-83
2022/10/17 04:28:08;;;;;;;3.90;2.03;;;17.20;90.00;;;;;;5023443;28;20602;-82
2022/10/17 04:30:33;;;;;;;3.50;2.10;;;17.30;90.00;;;;;;5011675;28;20046;-82
2022/10/17 04:32:59;;;;;;;3.15;1.98;;;17.20;90.00;;;;;;5011006;28;20049;-84
2022/10/17 04:35:24;;;;;;;5.85;2.40;;;17.20;90.10;;;;;;5009131;28;20026;-81
2022/10/17 04:37:50;;;;;;;5.30;2.20;;;17.20;89.60;;;;;;4993852;28;20026;-81
2022/10/17 04:40:15;;;;;;;5.45;2.20;;;17.20;89.70;;;;;;5030213;28;20021;-80
2022/10/17 04:42:41;;;;;;;6.40;2.28;;;17.20;89.90;;;;;;5031304;28;20028;-80
2022/10/17 04:45:07;;;;;;;5.75;2.33;;;17.20;90.00;;;;;;5031054;28;20087;-80
2022/10/17 04:47:32;;;;;;;6.60;2.50;;;17.20;90.00;;;;;;5017336;28;20038;-81
2022/10/17 04:49:58;;;;;;;5.28;2.20;;;17.20;90.00;;;;;;5017956;28;20029;-80
2022/10/17 04:52:27;;;;;;;4.75;2.20;;;17.20;90.00;;;;;;5015563;28;20034;-80
2022/10/17 04:54:52;;;;;;;4.78;2.25;;;17.20;90.00;;;;;;4994951;28;20025;-80
2022/10/17 04:57:18;;;;;;;5.68;2.40;;;17.20;90.00;;;;;;4995483;28;20029;-80
2022/10/17 04:59:44;;;;;;;6.38;2.53;;;17.10;90.00;;;;;;5009804;28;20048;-81
2022/10/17 05:02:10;;;;;;;5.00;2.33;;;17.10;90.10;;;;;;4988252;28;20025;-80
2022/10/17 05:04:35;;;;;;;3.50;2.10;;;17.10;90.10;;;;;;5009472;28;20086;-82
2022/10/17 05:07:01;;;;;;;3.45;1.73;;;17.20;90.10;;;;;;5011737;28;20037;-81
2022/10/17 05:09:27;;;;;;;4.90;1.90;;;17.20;90.10;;;;;;4993878;28;20050;-81
2022/10/17 05:11:52;;;;;;;5.20;2.28;;;17.20;90.00;;;;;;5013104;28;20029;-82
2022/10/17 05:14:18;;;;;;;4.05;2.10;;;17.10;90.00;;;;;;4994129;28;20030;-81
2022/10/17 05:16:43;;;;;;;3.92;2.05;;;17.20;90.00;;;;;;4993691;28;20503;-80
2022/10/17 05:19:10;;;;;;;3.35;1.92;;;17.20;90.00;;;;;;4993183;28;20121;-82
2022/10/17 05:21:39;;;;;;;4.07;2.10;;;17.30;90.00;;;;;;5012476;28;20188;-81
2022/10/17 05:24:07;;;;;;;5.07;2.30;;;17.20;90.00;;;;;;5009990;28;20029;-82
2022/10/17 05:26:32;;;;;;;4.75;2.05;;;17.20;90.00;;;;;;5009942;28;20033;-79
2022/10/17 05:29:01;;;;;;;4.45;2.20;;;17.30;90.00;;;;;;5009763;28;20511;-81
2022/10/17 05:31:28;;;;;;;3.65;2.00;;;17.30;90.10;;;;;;5006578;28;20042;-82
2022/10/17 05:33:54;;;;;;;3.65;2.15;;;17.20;90.10;;;;;;5010334;28;20154;-82
2022/10/17 05:36:20;;;;;;;4.38;2.10;;;17.20;90.10;;;;;;4990375;28;20025;-80
2022/10/17 05:39:18;;;;;;;3.50;1.88;;;17.20;90.10;;;;;;5010156;28;20520;-83
2022/10/17 05:41:44;;;;;;;5.03;2.13;;;17.10;90.10;;;;;;4991102;28;20510;-82
2022/10/17 05:44:10;;;;;;;4.70;2.25;;;17.10;90.10;;;;;;4992439;28;20026;-81
2022/10/17 05:46:36;;;;;;;5.18;2.30;;;17.20;90.20;;;;;;4991763;28;20349;-81
2022/10/17 05:49:01;;;;;;;5.22;2.08;;;17.10;90.10;;;;;;5009639;28;20523;-82
2022/10/17 05:51:27;;;;;;;3.33;1.98;;;17.10;90.20;;;;;;4991596;28;20032;-81
2022/10/17 05:53:52;;;;;;;4.20;2.30;;;17.10;90.20;;;;;;4991832;28;20116;-82
2022/10/17 05:56:19;;;;;;;3.88;2.00;;;17.10;90.20;;;;;;4991728;28;20550;-81
2022/10/17 05:58:45;;;;;;;4.00;2.20;;;17.10;90.20;;;;;;4991968;28;20045;-81
2022/10/17 06:01:11;;;;;;;4.30;1.80;;;17.10;90.30;;;;;;4991516;28;20029;-81
2022/10/17 06:03:37;;;;;;;4.05;2.20;;;17.10;90.20;;;;;;4991750;28;20040;-81
2022/10/17 06:06:10;;;;;;;3.22;1.90;;;17.10;90.20;;;;;;4991656;28;20101;-82
2022/10/17 06:08:36;;;;;;;3.10;2.00;;;17.10;90.10;;;;;;4992017;28;20030;-84
2022/10/17 06:11:02;;;;;;;4.97;2.05;;;17.20;90.10;;;;;;5008787;28;20034;-79
2022/10/17 06:13:28;;;;;;;3.80;2.20;;;17.20;90.00;;;;;;4991768;28;20495;-81
2022/10/17 06:15:54;;;;;;;3.90;2.33;;;17.20;90.00;;;;;;4991671;28;20033;-80
2022/10/17 06:18:19;;;;;;;3.08;1.80;;;17.20;90.00;;;;;;4991751;28;20095;-81
2022/10/17 06:20:45;;;;;;;4.55;2.63;;;17.20;90.00;;;;;;4991971;28;20438;-81
2022/10/17 06:23:10;;;;;;;3.33;1.77;;;17.20;90.00;;;;;;4991875;28;20116;-81
2022/10/17 06:25:36;;;;;;;3.78;2.08;;;17.20;90.00;;;;;;4991736;28;20030;-81
2022/10/17 06:28:02;;;;;;;3.05;1.95;;;17.20;90.00;;;;;;4991638;28;20033;-81
2022/10/17 06:30:27;;;;;;;3.58;2.15;;;17.20;90.10;;;;;;4991586;28;20484;-82
2022/10/17 06:32:53;;;;;;;3.88;1.95;;;17.20;90.10;;;;;;4994586;28;20026;-80
2022/10/17 06:35:19;;;;;;;3.35;1.70;;;17.20;90.40;;;;;;4995429;28;20034;-82
2022/10/17 06:37:44;;;;;;;3.33;1.95;;;17.20;90.10;;;;;;4995367;28;20022;-80
2022/10/17 06:40:11;;;;;;;2.88;1.70;;;17.20;90.10;;;;;;4995084;28;20032;-81
2022/10/17 06:42:40;;;;;;;4.05;1.95;;;17.20;90.20;;;;;;4995343;28;20080;-80
2022/10/17 06:45:07;;;;;;;4.15;2.30;;;17.20;90.20;;;;;;5012920;28;20054;-82
2022/10/17 06:47:34;;;;;;;4.45;2.03;;;17.20;90.20;;;;;;4995098;28;20519;-81
2022/10/17 06:49:59;;;;;;;4.57;2.00;;;17.20;90.10;;;;;;4994405;28;20034;-80
2022/10/17 06:52:25;;;;;;;3.50;1.95;;;17.20;90.10;;;;;;5003486;28;20052;-85
2022/10/17 06:54:50;;;;;;;3.53;1.90;;;17.20;90.10;;;;;;5007132;28;20036;-82
2022/10/17 06:57:16;;;;;;;2.70;1.73;;;17.20;90.10;;;;;;5003074;28;20084;-83
2022/10/17 06:59:42;;;;;;;5.18;2.47;;;17.20;90.10;;;;;;4999433;28;20036;-83
2022/10/17 07:02:09;;;;;;;3.15;1.83;;;17.20;90.00;;;;;;4997218;28;20484;-83
2022/10/17 07:04:34;;;;;;;3.60;1.80;;;17.30;90.00;;;;;;5014665;28;20034;-80
2022/10/17 07:07:01;;;;;;;4.22;1.80;;;17.30;89.90;;;;;;5014130;28;20758;-81
2022/10/17 07:09:28;;;;;;;4.32;2.00;;;17.30;90.00;;;;;;4996009;28;20022;-80
2022/10/17 07:11:53;;;;;;;4.07;1.88;;;17.30;89.70;;;;;;4995240;28;20316;-81
2022/10/17 07:14:19;;;;;;;3.67;2.00;;;17.30;89.60;;;;;;4995238;28;20134;-80
2022/10/17 07:16:45;;;;;;;3.30;2.00;;;17.40;89.50;;;;;;4995185;28;20125;-81
2022/10/17 07:19:10;;;;;;;2.88;1.90;;;17.30;89.40;;;;;;4994968;28;20050;-80
2022/10/17 07:21:36;;;;;;;3.70;1.90;;;17.30;89.50;;;;;;5012249;28;20076;-81
2022/10/17 07:24:02;;;;;;;3.38;2.05;;;17.40;89.60;;;;;;4994956;28;20109;-81
2022/10/17 07:26:28;;;;;;;3.42;1.88;;;17.30;89.70;;;;;;4993205;28;20069;-80
2022/10/17 07:28:54;;;;;;;3.28;1.58;;;17.30;89.60;;;;;;5010966;28;20076;-80
2022/10/17 07:31:21;;;;;;;3.60;1.90;;;17.30;89.60;;;;;;5010212;28;20088;-81
2022/10/17 07:33:47;;;;;;;2.90;1.80;;;17.40;89.70;;;;;;5010850;28;20061;-80
2022/10/17 07:36:14;;;;;;;3.22;1.90;;;17.30;89.60;;;;;;5010642;28;20061;-81
2022/10/17 07:38:40;;;;;;;3.08;2.00;;;17.30;89.50;;;;;;5010672;28;20022;-80
2022/10/17 07:41:08;;;;;;;3.70;2.05;;;17.30;89.50;;;;;;5010461;28;20036;-82
2022/10/17 07:43:35;;;;;;;4.55;1.90;;;17.40;89.40;;;;;;5010494;28;20551;-80
2022/10/17 07:46:02;;;;;;;2.70;1.85;;;17.40;89.30;;;;;;5010900;28;20120;-83
2022/10/17 07:48:27;;;;;;;2.97;1.83;;;17.40;89.30;;;;;;5010498;28;20026;-81
2022/10/17 07:50:53;;;;;;;4.32;2.10;;;17.40;90.00;;;;;;5009965;28;20455;-80
2022/10/17 07:53:19;;;;;;;4.30;2.00;;;17.40;89.40;;;;;;5010749;28;20037;-81
2022/10/17 07:55:45;;;;;;;2.53;1.80;;;17.40;89.30;;;;;;5010540;28;20053;-82
2022/10/17 07:58:11;;;;;;;4.15;2.28;;;17.40;89.30;;;;;;5010131;28;20480;-81
2022/10/17 08:00:36;;;;;;;3.75;2.03;;;17.40;89.40;;;;;;5010073;28;20040;-81
2022/10/17 08:03:03;;;;;;;3.15;1.90;;;17.40;89.20;;;;;;5010128;28;20029;-81
2022/10/17 08:05:29;;;;;;;2.42;1.70;;;17.40;89.10;;;;;;5010289;28;20041;-81
2022/10/17 08:07:55;;;;;;;3.65;2.00;;;17.50;89.00;;;;;;5010384;28;20056;-80
2022/10/17 08:10:21;;;;;;;3.13;1.80;;;17.50;89.20;;;;;;5009866;28;20470;-81
2022/10/17 08:12:47;;;;;;;3.15;1.85;;;17.50;89.00;;;;;;5010086;28;20044;-81
2022/10/17 08:15:12;;;;;;;4.10;2.25;;;17.50;88.80;;;;;;5011218;28;20026;-81
2022/10/17 08:17:38;;;;;;;3.10;1.75;;;17.50;88.80;;;;;;5010944;28;20041;-80
2022/10/17 08:20:05;;;;;;;3.50;1.88;;;17.50;88.60;;;;;;5011066;28;20030;-80
2022/10/17 08:22:31;;;;;;;2.92;1.77;;;17.50;88.80;;;;;;5007277;28;20040;-81
2022/10/17 08:24:57;;;;;;;3.47;1.92;;;17.50;88.80;;;;;;4993859;28;20054;-82
2022/10/17 08:27:23;;;;;;;3.80;1.98;;;17.50;88.80;;;;;;4993425;28;20060;-82
2022/10/17 08:29:53;;;;;;;4.07;1.80;;;17.50;88.90;;;;;;4993294;28;20029;-81
2022/10/17 08:32:21;;;;;;;2.33;1.63;;;17.50;89.00;;;;;;4993376;28;20029;-83
2022/10/17 08:34:46;;;;;;;3.47;2.20;;;17.50;88.90;;;;;;4993548;28;20022;-83
2022/10/17 08:37:12;;;;;;;3.50;1.98;;;17.50;88.90;;;;;;4993173;28;20069;-81
2022/10/17 08:39:40;;;;;;;2.42;1.70;;;17.50;88.80;;;;;;4993239;28;20117;-81
2022/10/17 08:42:48;;;;;;;2.80;1.80;;;17.50;88.90;;;;;;4993187;28;20030;-81
2022/10/17 08:45:28;;;;;;;2.80;1.83;;;17.60;88.80;;;;;;4993289;28;20081;-80
2022/10/17 08:47:58;;;;;;;3.88;2.00;;;17.60;88.40;;;;;;4993036;28;20036;-81
2022/10/17 08:50:42;;;;;;;2.85;1.88;;;17.70;88.30;;;;;;4992920;28;20029;-82
2022/10/17 08:53:20;;;;;;;3.15;1.80;;;17.70;88.00;;;;;;4992990;28;20033;-82
2022/10/17 08:55:48;;;;;;;3.42;1.80;;;17.80;87.80;;;;;;4992494;28;20033;-81
2022/10/17 08:58:43;;;;;;;2.60;1.70;;;17.80;87.70;;;;;;4992848;28;20018;-82
2022/10/17 09:01:31;;;;;;;2.90;1.90;;;17.80;87.70;;;;;;4984152;28;20201;-81
2022/10/17 09:04:27;;;;;;;3.55;1.92;;;17.80;87.70;;;;;;4992768;28;20053;-80
2022/10/17 09:07:04;;;;;;;3.40;1.85;;;17.70;87.80;;;;;;5010718;28;20731;-81
2022/10/17 09:09:54;;;;;;;3.72;1.98;;;17.70;87.90;;;;;;5010426;28;20032;-81
2022/10/17 09:12:41;;;;;;;2.55;1.80;;;17.70;88.00;;;;;;4992844;28;20484;-81
2022/10/17 09:15:30;;;;;;;2.92;1.83;;;17.80;87.90;;;;;;4992732;28;20038;-81
2022/10/17 09:18:02;;;;;;;3.20;1.75;;;17.80;87.90;;;;;;5010284;28;20022;-83
2022/10/17 09:20:35;;;;;;;2.42;1.70;;;17.80;87.70;;;;;;4992589;28;20025;-82
2022/10/17 09:23:05;;;;;;;3.25;2.00;;;17.90;87.70;;;;;;4997762;28;20686;-85
2022/10/17 09:25:40;;;;;;;3.42;2.03;;;17.80;87.60;;;;;;5020025;28;20030;-85
2022/10/17 09:28:17;;;;;;;3.00;1.58;;;17.70;87.60;;;;;;4998667;28;20029;-81
2022/10/17 09:31:00;;;;;;;2.90;1.80;;;17.80;87.70;;;;;;4994180;28;20029;-82
2022/10/17 09:33:29;;;;;;;3.58;2.25;;;17.80;87.70;;;;;;4993502;28;20025;-82
2022/10/17 09:35:56;;;;;;;4.18;1.95;;;17.80;87.80;;;;;;5010589;28;20018;-81
2022/10/17 09:38:25;;;;;;;3.28;1.90;;;17.80;87.80;;;;;;4992712;28;20033;-82
2022/10/17 09:40:56;;;;;;;3.05;1.73;;;17.80;87.70;;;;;;5009752;28;20076;-80
2022/10/17 09:43:23;;;;;;;2.60;1.80;;;17.80;87.70;;;;;;4992378;28;20037;-82
2022/10/17 09:46:07;;;;;;;3.95;2.00;;;17.90;87.70;;;;;;4992812;28;20096;-81
2022/10/17 09:48:38;;;;;;;2.97;1.83;;;17.90;87.50;;;;;;5009963;28;20029;-80
2022/10/17 09:51:06;;;;;;;2.60;1.90;;;18.00;87.40;;;;;;5009354;28;20125;-80
2022/10/17 09:53:36;;;;;;;2.83;1.80;;;18.00;87.20;;;;;;5009820;28;20522;-81
2022/10/17 09:56:07;;;;;;;2.88;1.75;;;18.00;87.10;;;;;;4992311;28;20030;-81
2022/10/17 09:58:47;;;;;;;3.42;2.00;;;18.00;87.00;;;;;;5009891;28;20026;-80
2022/10/17 10:01:30;;;;;;;2.80;1.90;;;18.00;86.90;;;;;;4992108;28;20026;-82
2022/10/17 10:04:11;;;;;;;2.65;1.75;;;18.10;86.90;;;;;;4991950;28;20510;-79
2022/10/17 10:06:37;;;;;;;2.60;1.60;;;18.10;86.70;;;;;;5012329;28;20040;-81
2022/10/17 10:09:05;;;;;;;3.05;1.90;;;18.20;86.60;;;;;;4996327;28;20064;-81
2022/10/17 10:11:51;;;;;;;3.42;1.98;;;18.20;86.40;;;;;;4995852;28;20025;-80
2022/10/17 10:14:33;;;;;;;3.35;2.00;;;18.20;86.30;;;;;;4996061;28;20487;-79
2022/10/17 10:17:04;;;;;;;2.90;1.90;;;18.30;86.20;;;;;;4995764;28;20121;-82
2022/10/17 10:19:36;;;;;;;3.42;1.70;;;18.30;86.00;;;;;;4996033;28;20028;-80
2022/10/17 10:22:03;;;;;;;;;;;18.30;86.00;;;;;;5013474;28;20021;-81
2022/10/17 10:24:29;;;;;;;3.63;2.00;;;18.30;86.10;;;;;;4995947;28;19905;-80
2022/10/17 10:27:01;;;;;;;3.03;1.85;;;18.30;86.20;;;;;;4995868;28;20037;-81
2022/10/17 10:29:37;;;;;;;2.90;1.90;;;18.30;86.30;;;;;;5013337;28;20049;-82
2022/10/17 10:32:18;;;;;;;2.90;1.75;;;18.40;86.40;;;;;;4995353;28;20029;-80
2022/10/17 10:34:46;;;;;;;;;;;18.30;86.40;;;;;;4996009;28;20033;-82
2022/10/17 10:37:45;;;;;;;2.63;1.67;;;18.30;86.30;;;;;;4995564;28;19952;-82
2022/10/17 10:40:20;;;;;;;2.92;2.00;;;18.30;86.30;;;;;;4995218;28;20022;-80
2022/10/17 10:42:51;;;;;;;2.97;1.80;;;18.30;86.20;;;;;;4995892;28;20050;-80
2022/10/17 10:45:23;;;;;;;2.90;1.63;;;18.30;86.20;;;;;;4995709;28;20041;-80
2022/10/17 10:47:55;;;;;;;;;;;18.30;86.40;;;;;;4996112;28;20476;-82
2022/10/17 10:50:23;;;;;;;2.80;1.70;;;18.30;86.50;;;;;;4995342;28;19905;-82
2022/10/17 10:53:15;;;;;;;2.42;1.60;;;18.20;86.50;;;;;;4995551;28;20419;-82
2022/10/17 10:55:54;;;;;;;2.80;1.90;;;18.30;86.70;;;;;;5013045;28;20018;-81
2022/10/17 10:58:28;;;;;;;3.63;1.90;;;18.30;86.60;;;;;;5012956;28;20072;-81
2022/10/17 11:00:56;;;;;;;2.72;1.65;;;18.30;86.50;;;;;;4995040;28;20030;-82
2022/10/17 11:03:51;;;;;;;3.30;1.90;;;18.20;86.70;;;;;;4995096;28;20030;-82
2022/10/17 11:06:29;;;;;;;2.78;1.75;;;18.20;86.90;;;;;;4994843;28;20030;-82
2022/10/17 11:09:17;;;;;;;2.65;1.80;;;18.20;87.00;;;;;;4995242;28;20033;-80
2022/10/17 11:12:00;;;;;;;3.00;1.70;;;18.20;87.00;;;;;;4994799;28;20025;-82
2022/10/17 11:14:44;;;;;;;3.95;1.70;;;18.10;87.00;;;;;;5012729;28;20084;-81
2022/10/17 11:17:47;;;;;;;3.03;1.90;;;18.10;87.00;;;;;;4994139;28;20025;-80
2022/10/17 11:20:31;;;;;;;2.47;1.67;;;18.10;87.20;;;;;;5012126;28;20045;-80
2022/10/17 11:23:18;;;;;;;2.92;1.70;;;18.00;87.40;;;;;;4994717;28;20065;-81
2022/10/17 11:25:44;;;;;;;3.30;1.92;;;18.00;87.50;;;;;;5012138;28;20030;-81
2022/10/17 11:28:13;;;;;;;3.85;1.90;;;18.00;87.70;;;;;;4994714;28;20018;-81
2022/10/17 11:30:56;;;;;;;2.70;1.80;;;18.00;87.80;;;;;;4994176;28;20042;-82
2022/10/17 11:33:44;;;;;;;3.63;1.90;;;18.00;87.90;;;;;;4994673;28;20721;-83
2022/10/17 11:36:11;;;;;;;2.63;1.73;;;17.90;88.00;;;;;;5012223;28;20054;-82
2022/10/17 11:38:51;;;;;;;3.08;1.95;;;17.90;88.00;;;;;;4994313;28;20108;-80
2022/10/17 11:41:42;;;;;;;3.03;1.90;;;17.90;88.10;;;;;;4994546;28;20033;-80
2022/10/17 11:44:22;;;;;;;3.08;1.77;;;17.80;88.20;;;;;;4994288;28;20030;-81
2022/10/17 11:46:55;;;;;;;2.83;1.75;;;17.80;88.20;;;;;;4994201;28;20092;-81
2022/10/17 11:49:40;;;;;;;3.03;1.80;;;17.80;88.30;;;;;;5011610;28;20475;-81
2022/10/17 11:52:29;;;;;;;3.72;1.90;;;17.80;88.40;;;;;;5000919;28;20044;-82
2022/10/17 11:55:00;;;;;;;2.50;1.77;;;17.80;88.50;;;;;;5020222;28;20498;-83
2022/10/17 11:57:44;;;;;;;3.45;2.00;;;17.80;88.50;;;;;;5007356;28;20034;-81
2022/10/17 12:00:35;;;;;;;2.60;1.63;;;17.80;88.50;;;;;;4991380;28;20036;-83
2022/10/17 12:03:18;;;;;;;2.83;1.88;;;17.70;88.50;;;;;;4991113;28;20038;-81
2022/10/17 12:05:46;;;;;;;2.90;1.80;;;17.80;88.50;;;;;;4992369;28;20037;-81
2022/10/17 12:08:22;;;;;;;2.95;1.70;;;17.80;88.40;;;;;;4974660;28;20092;-82
2022/10/17 12:10:58;;;;;;;3.05;1.90;;;17.90;88.40;;;;;;4974025;28;20022;-80
2022/10/17 12:13:27;;;;;;;3.63;1.88;;;17.80;88.90;;;;;;4992143;28;20018;-83
2022/10/17 12:15:56;;;;;;;3.17;1.85;;;17.80;88.20;;;;;;4974177;28;20023;-81
2022/10/17 12:18:28;;;;;;;2.83;1.85;;;17.80;88.20;;;;;;4974145;28;20073;-82
2022/10/17 12:20:59;;;;;;;3.47;2.10;;;17.80;88.20;;;;;;4974150;28;20499;-81
2022/10/17 12:23:30;;;;;;;2.65;1.80;;;17.80;88.30;;;;;;4974011;28;20034;-81
2022/10/17 12:26:02;;;;;;;3.17;2.05;;;17.80;88.40;;;;;;4974138;28;20035;-81
2022/10/17 12:28:44;;;;;;;2.50;1.67;;;17.80;88.50;;;;;;4973731;28;20026;-82
2022/10/17 12:31:16;;;;;;;2.55;1.63;;;17.70;88.50;;;;;;4973516;28;20030;-82
2022/10/17 12:33:51;;;;;;;3.38;2.15;;;17.70;88.50;;;;;;4973967;28;20026;-79
2022/10/17 12:36:22;;;;;;;2.67;1.80;;;17.70;88.50;;;;;;4974122;28;20014;-81
2022/10/17 12:38:55;;;;;;;3.10;1.70;;;17.70;88.50;;;;;;4974136;28;20018;-82
2022/10/17 12:41:46;;;;;;;3.00;1.75;;;17.70;88.60;;;;;;4991095;28;20667;-81
2022/10/17 12:44:12;;;;;;;3.58;2.05;;;17.70;88.70;;;;;;4986631;28;20042;-80
2022/10/17 12:46:47;;;;;;;3.42;1.95;;;17.70;88.70;;;;;;4973761;28;20034;-81
2022/10/17 12:49:37;;;;;;;2.78;1.73;;;17.70;88.70;;;;;;4973822;28;20476;-82
2022/10/17 12:52:18;;;;;;;2.40;1.80;;;17.70;88.80;;;;;;4991067;28;20019;-84
2022/10/17 12:55:02;;;;;;;3.22;2.00;;;17.70;88.80;;;;;;4973728;28;20344;-83
2022/10/17 12:57:55;;;;;;;3.65;1.67;;;17.70;88.90;;;;;;4973520;28;20125;-80
2022/10/17 13:00:33;;;;;;;3.80;1.95;;;17.60;88.80;;;;;;4973809;28;20089;-82
2022/10/17 13:03:10;;;;;;;3.58;1.90;;;17.60;88.80;;;;;;4973376;28;20026;-80
2022/10/17 13:05:39;;;;;;;3.33;2.00;;;17.70;88.80;;;;;;4973332;28;20026;-81
2022/10/17 13:08:07;;;;;;;3.05;1.80;;;17.60;88.70;;;;;;4991188;28;20026;-81
2022/10/17 13:10:36;;;;;;;2.92;1.83;;;17.70;88.60;;;;;;4973466;28;20101;-81